Time;durP1;ratioP1;P1;durP2;ratioP2;P2;SDS_P1;SDS_P2;PMS_P1;PMS_P2;Temp;Humidity;BMP_temperature;BMP_pressure;BME280_temperature;BME280_humidity;BME280_pressure;Samples;Min_cycle;Max_cycle;Signal;HPM_P1;HPM_P2
2023/03/24 00:00:20;;;;;;;2.85;1.63;;;11.20;99.90;;;;;;5073177;28;20033;-65
2023/03/24 00:02:47;;;;;;;3.53;1.80;;;11.30;99.90;;;;;;5073215;28;20127;-66
2023/03/24 00:05:21;;;;;;;3.90;1.90;;;11.30;99.90;;;;;;5073107;28;20056;-65
2023/03/24 00:07:48;;;;;;;3.95;1.38;;;11.30;99.90;;;;;;5073044;28;20058;-66
2023/03/24 00:10:17;;;;;;;5.50;1.92;;;11.30;99.90;;;;;;5073346;28;20392;-65
2023/03/24 00:12:45;;;;;;;3.10;1.83;;;11.30;99.90;;;;;;5073332;28;20048;-65
2023/03/24 00:15:15;;;;;;;12.25;2.05;;;11.20;99.90;;;;;;5073211;28;20439;-66
2023/03/24 00:17:41;;;;;;;3.35;1.73;;;11.20;99.90;;;;;;5073265;28;20079;-66
2023/03/24 00:20:13;;;;;;;7.40;1.70;;;11.20;99.90;;;;;;5073237;28;20064;-66
2023/03/24 00:22:41;;;;;;;2.42;1.58;;;11.20;99.90;;;;;;5073133;28;20414;-66
2023/03/24 00:25:10;;;;;;;3.00;1.58;;;11.20;99.90;;;;;;5073152;28;20044;-66
2023/03/24 00:27:37;;;;;;;4.95;1.33;;;11.20;99.90;;;;;;5072828;28;20050;-66
2023/03/24 00:30:08;;;;;;;5.45;1.90;;;11.20;99.90;;;;;;5072695;28;20044;-66
2023/03/24 00:32:36;;;;;;;2.17;1.20;;;11.20;99.90;;;;;;5072759;28;20036;-66
2023/03/24 00:35:04;;;;;;;2.90;1.60;;;11.10;99.90;;;;;;5072956;28;20432;-66
2023/03/24 00:37:30;;;;;;;2.90;1.60;;;11.20;99.90;;;;;;5073044;28;20046;-66
2023/03/24 00:39:55;;;;;;;3.95;1.83;;;11.20;99.90;;;;;;5073486;28;20039;-69
2023/03/24 00:42:23;;;;;;;2.42;1.60;;;11.10;99.90;;;;;;5072717;28;20484;-69
2023/03/24 00:44:49;;;;;;;3.72;1.50;;;11.10;99.90;;;;;;5072917;28;20403;-69
2023/03/24 00:47:16;;;;;;;3.22;1.23;;;11.10;99.90;;;;;;5073012;28;20133;-69
2023/03/24 00:49:43;;;;;;;2.25;1.40;;;11.10;99.90;;;;;;5072933;28;20055;-69
2023/03/24 00:52:13;;;;;;;2.85;1.65;;;11.10;99.90;;;;;;5072906;28;20048;-69
2023/03/24 00:54:39;;;;;;;5.20;1.60;;;11.60;99.90;;;;;;5072732;28;20040;-69
2023/03/24 00:57:06;;;;;;;2.13;1.45;;;11.00;99.90;;;;;;5072635;28;20392;-68
2023/03/24 00:59:36;;;;;;;4.22;1.95;;;11.10;99.90;;;;;;5072712;28;20039;-69
2023/03/24 01:02:03;;;;;;;10.03;2.27;;;11.10;99.90;;;;;;5072496;28;20088;-69
2023/03/24 01:04:29;;;;;;;4.28;1.90;;;11.10;99.90;;;;;;5072495;28;20295;-69
2023/03/24 01:06:57;;;;;;;10.95;1.73;;;12.10;99.90;;;;;;5072674;28;20542;-69
2023/03/24 01:09:23;;;;;;;4.28;2.30;;;11.10;99.90;;;;;;5072743;28;20499;-69
2023/03/24 01:11:49;;;;;;;3.33;1.48;;;11.10;99.90;;;;;;5072380;28;20044;-69
2023/03/24 01:14:15;;;;;;;2.78;1.65;;;11.10;99.90;;;;;;5072597;28;20041;-69
2023/03/24 01:16:41;;;;;;;3.47;1.30;;;11.10;99.90;;;;;;5072372;28;20188;-69
2023/03/24 01:19:08;;;;;;;4.72;1.42;;;11.10;99.90;;;;;;5072444;28;20044;-69
2023/03/24 01:21:35;;;;;;;5.00;1.60;;;11.10;99.90;;;;;;5072593;28;20437;-69
2023/03/24 01:24:03;;;;;;;2.88;1.77;;;11.10;99.90;;;;;;5072304;28;20043;-69
2023/03/24 01:26:29;;;;;;;3.42;1.67;;;11.10;99.90;;;;;;5072556;28;20075;-70
2023/03/24 01:28:55;;;;;;;4.43;1.90;;;11.10;99.90;;;;;;5072259;28;20492;-70
2023/03/24 01:31:21;;;;;;;2.72;1.48;;;11.30;99.90;;;;;;5072209;28;20037;-69
2023/03/24 01:33:46;;;;;;;1.77;1.10;;;11.10;99.90;;;;;;5072313;28;20052;-69
2023/03/24 01:36:12;;;;;;;3.33;1.80;;;11.10;99.90;;;;;;5072491;28;20036;-68
2023/03/24 01:38:38;;;;;;;1.70;1.10;;;11.10;99.90;;;;;;5072407;28;20369;-69
2023/03/24 01:41:05;;;;;;;2.95;1.52;;;11.10;99.90;;;;;;5072446;28;20121;-69
2023/03/24 01:43:32;;;;;;;2.15;1.42;;;11.10;99.90;;;;;;5075352;28;20055;-69
2023/03/24 01:46:06;;;;;;;5.95;1.65;;;11.10;99.90;;;;;;5075723;28;20086;-69
2023/03/24 01:48:50;;;;;;;3.45;1.67;;;11.10;99.90;;;;;;5076041;28;20037;-69
2023/03/24 01:51:18;;;;;;;1.90;1.08;;;11.10;99.90;;;;;;5075617;28;20075;-69
2023/03/24 01:54:00;;;;;;;2.75;1.50;;;11.10;99.90;;;;;;5075593;28;20045;-70
2023/03/24 01:56:30;;;;;;;3.55;1.73;;;11.10;99.90;;;;;;5057986;28;20131;-70
2023/03/24 01:59:00;;;;;;;4.73;1.97;;;11.10;99.90;;;;;;5075887;28;20042;-70
2023/03/24 02:01:29;;;;;;;2.75;1.17;;;11.10;99.90;;;;;;5075482;28;20365;-69
2023/03/24 02:03:57;;;;;;;3.00;1.70;;;11.10;99.90;;;;;;5075582;28;20051;-68
2023/03/24 02:06:25;;;;;;;2.80;1.63;;;11.50;99.90;;;;;;5075338;28;20088;-69
2023/03/24 02:09:00;;;;;;;1.45;1.20;;;11.20;99.90;;;;;;5074379;28;20123;-69
2023/03/24 02:11:30;;;;;;;1.88;1.20;;;11.10;99.90;;;;;;5075668;28;20046;-70
2023/03/24 02:13:56;;;;;;;3.20;1.48;;;11.20;99.90;;;;;;5075518;28;20086;-69
2023/03/24 02:17:05;;;;;;;5.45;1.45;;;11.30;99.90;;;;;;5057587;28;20468;-69
2023/03/24 02:19:46;;;;;;;2.35;1.67;;;11.20;99.90;;;;;;5075413;28;20048;-69
2023/03/24 02:22:21;;;;;;;1.80;1.27;;;11.20;99.90;;;;;;5075417;28;20040;-69
2023/03/24 02:25:05;;;;;;;3.00;1.25;;;12.00;99.90;;;;;;5057166;28;20049;-69
2023/03/24 02:27:55;;;;;;;2.78;1.40;;;11.20;99.90;;;;;;5075281;28;20097;-69
2023/03/24 02:30:49;;;;;;;3.90;1.63;;;11.30;99.90;;;;;;5075077;28;20040;-69
2023/03/24 02:33:48;;;;;;;2.55;1.40;;;11.30;99.90;;;;;;5075167;28;20047;-69
2023/03/24 02:36:32;;;;;;;2.40;1.20;;;11.30;99.90;;;;;;5074946;28;20051;-69
2023/03/24 02:39:16;;;;;;;3.53;1.05;;;11.30;99.90;;;;;;5074821;28;20036;-70
2023/03/24 02:42:09;;;;;;;1.70;1.35;;;11.50;99.90;;;;;;5075056;28;20091;-69
2023/03/24 02:44:52;;;;;;;4.25;1.17;;;11.40;99.90;;;;;;5075062;28;20079;-69
2023/03/24 02:47:50;;;;;;;0.95;0.73;;;11.40;99.90;;;;;;5075021;28;20076;-70
2023/03/24 02:50:48;;;;;;;1.63;1.33;;;11.40;99.90;;;;;;5074566;28;20149;-70
2023/03/24 02:53:18;;;;;;;2.97;1.65;;;11.40;99.90;;;;;;5073918;28;20051;-69
2023/03/24 02:56:08;;;;;;;2.38;1.42;;;11.40;99.90;;;;;;5074652;28;20039;-69
2023/03/24 02:58:39;;;;;;;1.90;1.20;;;11.40;99.90;;;;;;5064330;28;20052;-69
2023/03/24 03:01:13;;;;;;;6.07;1.42;;;11.40;99.90;;;;;;5074691;28;20076;-69
2023/03/24 03:03:45;;;;;;;2.40;1.70;;;11.40;99.90;;;;;;5074806;28;20047;-69
2023/03/24 03:06:17;;;;;;;2.38;1.60;;;11.40;99.90;;;;;;5056327;28;20411;-64
2023/03/24 03:08:46;;;;;;;3.13;1.83;;;11.40;99.90;;;;;;5074454;28;20124;-63
2023/03/24 03:11:14;;;;;;;2.10;1.38;;;11.40;99.90;;;;;;5074414;28;20036;-64
2023/03/24 03:13:53;;;;;;;4.82;1.63;;;11.40;99.90;;;;;;5074331;28;20044;-64
2023/03/24 03:16:24;;;;;;;2.85;1.58;;;11.40;99.90;;;;;;5074434;28;20029;-64
2023/03/24 03:19:00;;;;;;;3.35;1.50;;;11.40;99.90;;;;;;5074037;28;20041;-64
2023/03/24 03:21:31;;;;;;;3.72;1.90;;;11.50;99.90;;;;;;5074243;28;20083;-64
2023/03/24 03:24:03;;;;;;;;;;;11.50;99.90;;;;;;5074574;28;20520;-64
2023/03/24 03:26:31;;;;;;;2.67;1.50;;;11.50;99.90;;;;;;5074200;28;20413;-64
2023/03/24 03:29:04;;;;;;;1.73;1.40;;;11.50;99.90;;;;;;5074001;28;20048;-64
2023/03/24 03:31:40;;;;;;;1.73;1.27;;;11.50;99.90;;;;;;5055890;28;20045;-64
2023/03/24 03:34:15;;;;;;;3.35;1.70;;;11.50;99.90;;;;;;5073923;28;20403;-64
2023/03/24 03:37:09;;;;;;;3.30;1.83;;;11.60;99.90;;;;;;5073936;28;20039;-64
2023/03/24 03:39:46;;;;;;;2.08;1.58;;;12.00;99.90;;;;;;5032417;28;20136;-64
2023/03/24 03:42:12;;;;;;;3.28;1.98;;;11.60;99.90;;;;;;5073594;28;20040;-64
2023/03/24 03:44:38;;;;;;;3.40;2.08;;;11.60;99.90;;;;;;5073779;28;20094;-64
2023/03/24 03:47:04;;;;;;;2.83;1.60;;;12.10;99.90;;;;;;5073837;28;20484;-64
2023/03/24 03:49:30;;;;;;;2.90;1.20;;;11.70;99.90;;;;;;5073363;28;20101;-65
2023/03/24 03:51:56;;;;;;;2.10;1.35;;;11.70;99.90;;;;;;5073633;28;20040;-65
2023/03/24 03:54:26;;;;;;;2.50;1.55;;;11.70;99.90;;;;;;5073559;28;20530;-64
2023/03/24 03:56:52;;;;;;;1.53;1.40;;;11.70;99.90;;;;;;5073343;28;20052;-64
2023/03/24 03:59:33;;;;;;;1.85;0.95;;;11.70;99.90;;;;;;5073574;28;20492;-64
2023/03/24 04:02:11;;;;;;;1.58;1.10;;;11.60;99.90;;;;;;5073527;28;20487;-65
2023/03/24 04:04:52;;;;;;;1.90;1.15;;;11.30;99.90;;;;;;5073217;28;20069;-64
2023/03/24 04:07:29;;;;;;;1.70;1.33;;;11.50;99.90;;;;;;5073413;28;20049;-64
2023/03/24 04:10:16;;;;;;;1.17;0.80;;;11.40;99.90;;;;;;5073085;28;20037;-65
2023/03/24 04:13:02;;;;;;;2.42;0.93;;;11.30;99.90;;;;;;5073341;28;20438;-64
2023/03/24 04:15:52;;;;;;;0.88;0.80;;;11.20;99.90;;;;;;5073230;28;20075;-64
2023/03/24 04:18:29;;;;;;;1.20;0.63;;;11.10;99.90;;;;;;5073287;28;20040;-64
2023/03/24 04:21:27;;;;;;;2.15;1.00;;;11.00;99.90;;;;;;5073220;28;20036;-64
2023/03/24 04:24:10;;;;;;;3.45;1.23;;;10.90;99.90;;;;;;5073033;28;20115;-64
2023/03/24 04:26:59;;;;;;;3.55;0.90;;;10.80;99.90;;;;;;5072868;28;20040;-64
2023/03/24 04:29:45;;;;;;;2.15;1.02;;;10.80;99.90;;;;;;5073105;28;20404;-64
2023/03/24 04:32:23;;;;;;;1.30;0.77;;;10.70;99.90;;;;;;5073140;28;20032;-64
2023/03/24 04:35:00;;;;;;;2.50;1.02;;;10.70;99.90;;;;;;5072965;28;20458;-64
2023/03/24 04:37:31;;;;;;;2.15;0.70;;;10.70;99.90;;;;;;5073014;28;20064;-64
2023/03/24 04:40:01;;;;;;;1.85;1.33;;;10.70;99.90;;;;;;5073008;28;20107;-64
2023/03/24 04:42:34;;;;;;;1.27;0.80;;;10.60;99.90;;;;;;5072735;28;20101;-64
2023/03/24 04:45:02;;;;;;;1.27;0.80;;;10.60;99.90;;;;;;5072961;28;20499;-64
2023/03/24 04:47:31;;;;;;;1.30;0.60;;;10.50;99.90;;;;;;5072940;28;20553;-64
2023/03/24 04:50:02;;;;;;;1.10;0.90;;;10.50;99.90;;;;;;5072902;28;20051;-64
2023/03/24 04:52:28;;;;;;;2.55;0.82;;;10.50;99.90;;;;;;5072909;28;20164;-64
2023/03/24 04:54:54;;;;;;;6.57;1.02;;;10.50;99.90;;;;;;5072499;28;20044;-64
2023/03/24 04:57:19;;;;;;;1.40;0.80;;;10.40;99.90;;;;;;5072843;28;20040;-65
2023/03/24 04:59:45;;;;;;;1.95;0.60;;;10.20;99.90;;;;;;5072561;28;20484;-65
2023/03/24 05:02:11;;;;;;;0.73;0.50;;;10.30;99.90;;;;;;5072810;28;20036;-65
2023/03/24 05:04:36;;;;;;;2.53;1.13;;;10.30;99.90;;;;;;5072570;28;20049;-65
2023/03/24 05:07:03;;;;;;;3.55;0.85;;;10.20;99.90;;;;;;5072728;28;20115;-64
2023/03/24 05:09:30;;;;;;;4.32;0.75;;;10.30;99.90;;;;;;5072689;28;20094;-65
2023/03/24 05:11:56;;;;;;;3.70;1.33;;;10.20;99.90;;;;;;5072721;28;20082;-65
2023/03/24 05:14:22;;;;;;;1.23;0.52;;;10.20;99.90;;;;;;5073023;28;20036;-66
2023/03/24 05:16:48;;;;;;;2.20;0.73;;;10.10;99.90;;;;;;5055075;28;20097;-66
2023/03/24 05:19:14;;;;;;;4.53;1.10;;;10.10;99.90;;;;;;5076329;28;20492;-67
2023/03/24 05:21:40;;;;;;;5.28;1.33;;;10.10;99.90;;;;;;5076831;28;20536;-67
2023/03/24 05:24:06;;;;;;;6.68;0.80;;;10.00;99.90;;;;;;5076089;28;20119;-67
2023/03/24 05:26:32;;;;;;;5.95;1.40;;;10.00;99.90;;;;;;5076485;28;20128;-67
2023/03/24 05:28:57;;;;;;;1.40;0.50;;;9.90;99.90;;;;;;5076405;28;20484;-66
2023/03/24 05:31:23;;;;;;;3.22;1.13;;;9.90;99.90;;;;;;5076351;28;20050;-66
2023/03/24 05:33:48;;;;;;;2.42;0.70;;;9.90;99.90;;;;;;5076204;28;20044;-68
2023/03/24 05:36:14;;;;;;;2.55;0.98;;;9.90;99.90;;;;;;5075060;28;20552;-67
2023/03/24 05:38:40;;;;;;;1.48;0.95;;;9.90;99.90;;;;;;5058358;28;20101;-67
2023/03/24 05:41:06;;;;;;;1.77;0.80;;;9.90;99.90;;;;;;5076440;28;20115;-67
2023/03/24 05:43:32;;;;;;;9.20;1.10;;;9.90;99.90;;;;;;5076040;28;20040;-67
2023/03/24 05:45:59;;;;;;;3.50;1.65;;;9.90;99.90;;;;;;5074520;28;20484;-68
2023/03/24 05:48:25;;;;;;;2.30;1.10;;;9.90;99.90;;;;;;5076065;28;20506;-68
2023/03/24 05:50:52;;;;;;;2.33;1.08;;;10.00;99.90;;;;;;5075760;28;20086;-68
2023/03/24 05:53:17;;;;;;;4.03;1.00;;;9.90;99.90;;;;;;5057594;28;20072;-67
2023/03/24 05:55:45;;;;;;;5.82;1.00;;;9.90;99.90;;;;;;5075870;28;20492;-68
2023/03/24 05:58:11;;;;;;;3.20;1.13;;;9.90;99.90;;;;;;5075548;28;20041;-67
2023/03/24 06:00:37;;;;;;;4.38;1.10;;;9.60;99.90;;;;;;5075735;28;20098;-68
2023/03/24 06:03:04;;;;;;;5.00;1.23;;;9.80;99.90;;;;;;5075436;28;20051;-66
2023/03/24 06:05:30;;;;;;;3.42;0.85;;;9.80;99.90;;;;;;5075342;28;20049;-66
2023/03/24 06:08:00;;;;;;;2.50;0.88;;;9.80;99.90;;;;;;5075406;28;20044;-66
2023/03/24 06:10:26;;;;;;;4.63;1.15;;;9.70;99.90;;;;;;5057733;28;20033;-66
2023/03/24 06:12:53;;;;;;;3.70;0.80;;;9.50;99.90;;;;;;5057439;28;20404;-66
2023/03/24 06:15:19;;;;;;;6.15;1.27;;;9.70;99.90;;;;;;5075627;28;20488;-66
2023/03/24 06:17:45;;;;;;;5.22;1.00;;;9.60;99.90;;;;;;5075695;28;20098;-66
2023/03/24 06:20:15;;;;;;;4.28;0.82;;;10.10;99.90;;;;;;5075484;28;20040;-67
2023/03/24 06:22:46;;;;;;;2.42;0.77;;;9.70;99.90;;;;;;5075488;28;20472;-67
2023/03/24 06:25:14;;;;;;;1.77;1.05;;;10.50;99.90;;;;;;5075117;28;20139;-68
2023/03/24 06:27:45;;;;;;;6.13;1.00;;;9.70;99.90;;;;;;5057294;28;20037;-68
2023/03/24 06:30:15;;;;;;;3.95;0.75;;;9.70;99.90;;;;;;5074186;28;20416;-67
2023/03/24 06:32:42;;;;;;;3.05;0.90;;;9.80;99.90;;;;;;5075287;28;20107;-68
2023/03/24 06:35:08;;;;;;;2.25;1.35;;;9.80;99.90;;;;;;5075104;28;20416;-68
2023/03/24 06:37:33;;;;;;;1.88;0.80;;;9.90;99.90;;;;;;5075123;28;20043;-68
2023/03/24 06:40:00;;;;;;;3.97;0.88;;;9.80;99.90;;;;;;5073886;28;20426;-67
2023/03/24 06:42:26;;;;;;;6.93;1.20;;;9.80;99.90;;;;;;5056858;28;20048;-67
2023/03/24 06:44:51;;;;;;;1.20;0.50;;;9.90;99.90;;;;;;5056876;28;20391;-67
2023/03/24 06:47:17;;;;;;;4.07;0.98;;;9.90;99.90;;;;;;5074982;28;20044;-66
2023/03/24 06:49:42;;;;;;;3.67;0.90;;;9.90;99.90;;;;;;5074535;28;20048;-66
2023/03/24 06:52:08;;;;;;;2.10;1.02;;;9.90;99.90;;;;;;5073372;28;20072;-66
2023/03/24 06:54:33;;;;;;;3.70;1.08;;;10.00;99.90;;;;;;5073241;28;20040;-66
2023/03/24 06:56:59;;;;;;;4.88;1.05;;;10.00;99.90;;;;;;5073555;28;20051;-66
2023/03/24 06:59:25;;;;;;;7.05;1.00;;;10.00;99.90;;;;;;5074438;28;20044;-66
2023/03/24 07:01:52;;;;;;;4.35;0.73;;;10.10;99.90;;;;;;5074588;28;20043;-67
2023/03/24 07:04:18;;;;;;;4.00;0.93;;;10.10;99.90;;;;;;5074744;28;20511;-68
2023/03/24 07:06:44;;;;;;;3.55;1.10;;;10.10;99.90;;;;;;5056182;28;20052;-66
2023/03/24 07:09:11;;;;;;;4.70;1.52;;;10.70;99.90;;;;;;5074482;28;20046;-67
2023/03/24 07:11:37;;;;;;;4.78;1.17;;;10.20;99.90;;;;;;5074394;28;20108;-67
2023/03/24 07:14:02;;;;;;;4.35;1.25;;;10.20;99.90;;;;;;5056216;28;20044;-67
2023/03/24 07:16:28;;;;;;;4.45;1.25;;;10.20;99.90;;;;;;5074269;28;20400;-66
2023/03/24 07:18:54;;;;;;;5.13;0.82;;;10.10;99.90;;;;;;5074224;28;20481;-66
2023/03/24 07:21:19;;;;;;;1.15;0.65;;;10.30;99.90;;;;;;5073958;28;20106;-67
2023/03/24 07:23:45;;;;;;;4.50;1.10;;;10.40;99.90;;;;;;5072547;28;20063;-66
2023/03/24 07:26:11;;;;;;;8.68;1.55;;;10.40;99.90;;;;;;5074083;28;20108;-66
2023/03/24 07:28:36;;;;;;;1.30;0.68;;;10.40;99.90;;;;;;5074020;28;20055;-67
2023/03/24 07:31:03;;;;;;;4.72;1.23;;;10.40;99.90;;;;;;5074027;28;20109;-67
2023/03/24 07:33:30;;;;;;;4.72;0.93;;;10.50;99.90;;;;;;5073862;28;20041;-66
2023/03/24 07:35:56;;;;;;;6.15;1.42;;;10.50;99.90;;;;;;5073870;28;20041;-67
2023/03/24 07:38:23;;;;;;;4.63;1.00;;;10.60;99.90;;;;;;5074008;28;20123;-67
2023/03/24 07:40:49;;;;;;;4.53;1.30;;;10.60;99.90;;;;;;5073630;28;20111;-67
2023/03/24 07:43:14;;;;;;;2.72;1.40;;;10.60;99.90;;;;;;5072384;28;20072;-67
2023/03/24 07:45:40;;;;;;;4.05;1.20;;;10.60;99.90;;;;;;5073489;28;20499;-66
2023/03/24 07:48:06;;;;;;;6.95;1.80;;;10.60;99.90;;;;;;5073839;28;20037;-66
2023/03/24 07:50:31;;;;;;;4.70;1.25;;;10.60;99.90;;;;;;5073698;28;20102;-67
2023/03/24 07:52:57;;;;;;;1.63;0.68;;;10.50;99.90;;;;;;5055752;28;20047;-67
2023/03/24 07:55:23;;;;;;;10.98;1.88;;;10.60;99.90;;;;;;5073301;28;20091;-67
2023/03/24 07:57:49;;;;;;;3.05;1.10;;;10.60;99.90;;;;;;5073596;28;20037;-67
2023/03/24 08:00:20;;;;;;;4.78;1.58;;;10.70;99.90;;;;;;5073569;28;20029;-67
2023/03/24 08:02:52;;;;;;;6.53;1.95;;;10.70;99.90;;;;;;5073501;28;20036;-67
2023/03/24 08:05:19;;;;;;;11.73;1.38;;;10.80;99.90;;;;;;5072955;28;20071;-66
2023/03/24 08:07:52;;;;;;;2.55;0.93;;;10.70;99.90;;;;;;5073431;28;20044;-66
2023/03/24 08:10:19;;;;;;;2.10;1.02;;;10.80;99.90;;;;;;5073386;28;20052;-66
2023/03/24 08:12:46;;;;;;;5.25;1.33;;;10.80;99.90;;;;;;5073120;28;20484;-67
2023/03/24 08:15:12;;;;;;;5.70;0.98;;;11.10;99.90;;;;;;5073259;28;20044;-66
2023/03/24 08:17:38;;;;;;;1.73;1.00;;;10.90;99.90;;;;;;5072977;28;20107;-67
2023/03/24 08:20:10;;;;;;;5.53;1.55;;;11.00;99.90;;;;;;5073182;28;20392;-67
2023/03/24 08:22:38;;;;;;;4.82;1.42;;;11.00;99.90;;;;;;5073191;28;20064;-67
2023/03/24 08:25:05;;;;;;;2.53;0.95;;;10.90;99.90;;;;;;5055025;28;20101;-67
2023/03/24 08:27:30;;;;;;;3.97;1.70;;;11.20;99.90;;;;;;5072875;28;20091;-67
2023/03/24 08:29:56;;;;;;;10.73;1.15;;;11.20;99.90;;;;;;5038422;28;20076;-67
2023/03/24 08:32:22;;;;;;;3.80;1.13;;;12.10;99.90;;;;;;5072851;28;20540;-67
2023/03/24 08:34:47;;;;;;;5.53;0.93;;;11.30;99.90;;;;;;5072654;28;20041;-67
2023/03/24 08:37:13;;;;;;;8.20;1.48;;;11.40;99.90;;;;;;5073117;28;20112;-66
2023/03/24 08:39:38;;;;;;;7.80;2.17;;;11.30;99.90;;;;;;5072955;28;20102;-66
2023/03/24 08:42:04;;;;;;;6.22;1.30;;;12.00;99.90;;;;;;5054957;28;20457;-66
2023/03/24 08:44:30;;;;;;;8.63;1.42;;;11.40;99.90;;;;;;5072705;28;20040;-67
2023/03/24 08:46:55;;;;;;;6.38;1.33;;;11.50;99.90;;;;;;5072935;28;20068;-67
2023/03/24 08:49:21;;;;;;;6.03;1.27;;;11.40;99.90;;;;;;5054656;28;20044;-66
2023/03/24 08:51:47;;;;;;;8.48;1.50;;;11.50;99.90;;;;;;5072132;28;20080;-67
2023/03/24 08:54:12;;;;;;;2.78;0.98;;;11.50;99.90;;;;;;5073227;28;20106;-70
2023/03/24 08:56:39;;;;;;;3.88;1.67;;;11.70;99.90;;;;;;5072750;28;20032;-70
2023/03/24 08:59:05;;;;;;;7.47;1.15;;;11.90;99.90;;;;;;5072592;28;20048;-70
2023/03/24 09:01:34;;;;;;;12.90;1.52;;;12.10;99.90;;;;;;5072687;28;20037;-70
2023/03/24 09:04:00;;;;;;;4.47;1.17;;;12.30;99.90;;;;;;5072782;28;20086;-70
2023/03/24 09:06:26;;;;;;;6.80;1.58;;;12.70;99.90;;;;;;5072347;28;20504;-70
2023/03/24 09:08:52;;;;;;;6.07;0.88;;;12.70;99.90;;;;;;5072744;28;20048;-69
2023/03/24 09:11:20;;;;;;;5.53;1.05;;;13.30;38.30;;;;;;5072431;28;20150;-69
2023/03/24 09:13:46;;;;;;;5.10;1.40;;;12.80;32.20;;;;;;5072609;28;20407;-70
2023/03/24 09:16:12;;;;;;;3.53;1.02;;;12.80;1.00;;;;;;5054751;28;20048;-70
2023/03/24 09:18:37;;;;;;;4.30;1.08;;;12.90;1.00;;;;;;5072692;28;20039;-68
2023/03/24 09:21:04;;;;;;;7.20;1.83;;;12.70;1.00;;;;;;5072315;28;20041;-69
2023/03/24 09:23:30;;;;;;;9.90;1.60;;;12.90;1.00;;;;;;5054523;28;20051;-67
2023/03/24 09:25:56;;;;;;;5.35;1.50;;;13.00;1.00;;;;;;5072509;28;20051;-70
2023/03/24 09:28:23;;;;;;;3.00;0.75;;;13.00;1.00;;;;;;5072580;28;20043;-68
2023/03/24 09:30:49;;;;;;;6.90;1.20;;;13.00;1.00;;;;;;5072470;28;20038;-68
2023/03/24 09:33:15;;;;;;;8.30;1.42;;;13.20;1.00;;;;;;5054541;28;20035;-67
2023/03/24 09:35:41;;;;;;;3.15;0.80;;;13.30;1.00;;;;;;5072171;28;20044;-70
2023/03/24 09:38:06;;;;;;;4.90;0.90;;;13.20;1.00;;;;;;5072507;28;20033;-69
2023/03/24 09:40:36;;;;;;;6.50;1.33;;;12.80;1.00;;;;;;5072113;28;20040;-70
2023/03/24 09:43:19;;;;;;;7.23;1.33;;;13.20;1.00;;;;;;5072478;28;20415;-69
2023/03/24 09:45:57;;;;;;;2.78;1.20;;;13.00;1.00;;;;;;5072367;28;20638;-68
2023/03/24 09:48:30;;;;;;;2.40;0.80;;;13.20;99.90;;;;;;5072389;28;20089;-69
2023/03/24 09:50:58;;;;;;;8.75;1.08;;;13.10;99.90;;;;;;5072311;28;20392;-68
2023/03/24 09:53:31;;;;;;;8.27;1.77;;;12.60;99.90;;;;;;5071948;28;20037;-68
2023/03/24 09:56:00;;;;;;;4.35;1.63;;;12.40;99.90;;;;;;5072096;28;20603;-68
2023/03/24 09:58:30;;;;;;;7.97;1.02;;;12.70;99.90;;;;;;5072220;28;20041;-69
2023/03/24 10:00:55;;;;;;;5.07;1.33;;;12.80;99.90;;;;;;5072090;28;20041;-69
2023/03/24 10:03:23;;;;;;;8.68;1.23;;;12.80;99.90;;;;;;5073256;28;20059;-68
2023/03/24 10:06:06;;;;;;;7.97;1.67;;;12.70;99.90;;;;;;5075214;28;20056;-68
2023/03/24 10:08:40;;;;;;;7.80;1.30;;;12.70;99.90;;;;;;5075556;28;20048;-68
2023/03/24 10:11:24;;;;;;;5.38;1.27;;;12.70;99.90;;;;;;5075681;28;20036;-68
2023/03/24 10:14:11;;;;;;;7.65;1.08;;;12.80;99.90;;;;;;5075513;28;20482;-68
2023/03/24 10:17:05;;;;;;;4.78;1.00;;;12.90;99.90;;;;;;5075102;28;20086;-69
2023/03/24 10:19:53;;;;;;;5.50;1.50;;;13.20;78.50;;;;;;5057453;28;20041;-68
2023/03/24 10:22:28;;;;;;;3.70;1.13;;;13.50;50.20;;;;;;5075487;28;20036;-68
2023/03/24 10:25:06;;;;;;;3.83;0.65;;;13.40;99.90;;;;;;5074949;28;20044;-68
2023/03/24 10:27:34;;;;;;;8.15;1.60;;;13.40;99.90;;;;;;5056995;28;20416;-68
2023/03/24 10:30:13;;;;;;;4.30;1.15;;;14.20;99.90;;;;;;5075013;28;20047;-67
2023/03/24 10:32:41;;;;;;;2.95;1.10;;;13.20;42.90;;;;;;5057092;28;20067;-67
2023/03/24 10:35:14;;;;;;;4.22;1.63;;;13.30;99.90;;;;;;5075151;28;20392;-68
2023/03/24 10:37:40;;;;;;;4.32;1.00;;;12.90;1.00;;;;;;5074783;28;20036;-67
2023/03/24 10:40:16;;;;;;;3.35;1.15;;;13.20;1.00;;;;;;5075137;28;20093;-68
2023/03/24 10:42:43;;;;;;;8.07;1.25;;;13.20;99.90;;;;;;5056940;28;20037;-67
2023/03/24 10:45:15;;;;;;;5.13;1.58;;;13.40;99.90;;;;;;5074703;28;20036;-67
2023/03/24 10:47:42;;;;;;;4.40;1.17;;;13.60;92.00;;;;;;5074984;28;20076;-68
2023/03/24 10:50:08;;;;;;;5.07;1.10;;;13.60;1.00;;;;;;5075011;28;20490;-66
2023/03/24 10:52:42;;;;;;;4.97;1.33;;;13.70;99.90;;;;;;5074903;28;20036;-66
2023/03/24 10:55:15;;;;;;;4.13;1.20;;;13.80;99.90;;;;;;5074863;28;20111;-66
2023/03/24 10:57:47;;;;;;;5.28;1.35;;;13.70;1.00;;;;;;5074469;28;20036;-66
2023/03/24 11:00:35;;;;;;;3.42;1.00;;;13.50;13.00;;;;;;5056510;28;20047;-66
2023/03/24 11:03:05;;;;;;;2.20;0.80;;;14.10;99.90;;;;;;5072884;28;20416;-66
2023/03/24 11:05:37;;;;;;;8.25;0.70;;;14.00;93.20;;;;;;5074260;28;20506;-66
2023/03/24 11:08:27;;;;;;;2.95;0.80;;;13.20;92.70;;;;;;5074351;28;20043;-66
2023/03/24 11:10:56;;;;;;;7.70;1.23;;;13.20;1.00;;;;;;5074560;28;20082;-65
2023/03/24 11:13:21;;;;;;;2.83;0.80;;;13.10;1.00;;;;;;5074369;28;20037;-66
2023/03/24 11:16:11;;;;;;;3.10;0.85;;;13.10;2.80;;;;;;5073793;28;20062;-67
2023/03/24 11:18:37;;;;;;;3.90;1.10;;;13.00;99.90;;;;;;5074402;28;20626;-67
2023/03/24 11:21:05;;;;;;;5.35;0.80;;;12.80;1.00;;;;;;5074337;28;20036;-66
2023/03/24 11:23:39;;;;;;;3.50;1.10;;;12.80;99.90;;;;;;5074374;28;20058;-65
2023/03/24 11:26:14;;;;;;;1.77;0.80;;;12.90;99.90;;;;;;5056350;28;20028;-65
2023/03/24 11:28:45;;;;;;;2.28;0.77;;;13.00;99.90;;;;;;5074179;28;20052;-65
2023/03/24 11:31:17;;;;;;;2.53;1.05;;;13.20;1.00;;;;;;5074025;28;20476;-65
2023/03/24 11:33:55;;;;;;;1.45;0.80;;;13.00;70.00;;;;;;5073986;28;20048;-64
2023/03/24 11:36:29;;;;;;;4.72;0.73;;;14.10;99.90;;;;;;5073997;28;20040;-66
2023/03/24 11:39:14;;;;;;;5.35;1.13;;;13.50;99.90;;;;;;5056138;28;20666;-65
2023/03/24 11:41:49;;;;;;;2.40;0.68;;;13.90;99.90;;;;;;5073601;28;20041;-65
2023/03/24 11:44:23;;;;;;;5.65;0.82;;;14.30;80.10;;;;;;5073861;28;20041;-65
2023/03/24 11:46:56;;;;;;;7.38;1.08;;;14.50;99.90;;;;;;5073768;28;20601;-64
2023/03/24 11:49:30;;;;;;;2.95;0.63;;;14.80;99.90;;;;;;5073820;28;20489;-64
2023/03/24 11:51:56;;;;;;;4.57;0.80;;;14.90;99.90;;;;;;5073731;28;20045;-65
2023/03/24 11:54:31;;;;;;;3.25;0.63;;;15.00;99.90;;;;;;5073553;28;20388;-65
2023/03/24 11:57:03;;;;;;;1.25;0.82;;;15.10;99.90;;;;;;5073602;28;20064;-65
2023/03/24 11:59:45;;;;;;;3.08;0.80;;;15.20;99.90;;;;;;5055678;28;20042;-65
2023/03/24 12:02:21;;;;;;;3.97;0.90;;;15.30;99.90;;;;;;5055554;28;20511;-65
2023/03/24 12:05:10;;;;;;;5.13;1.10;;;15.10;99.90;;;;;;5038555;28;20064;-65
2023/03/24 12:07:52;;;;;;;2.53;0.50;;;15.30;99.90;;;;;;5055255;28;20407;-68
2023/03/24 12:10:30;;;;;;;4.80;0.50;;;15.40;99.90;;;;;;5073370;28;20040;-66
2023/03/24 12:13:15;;;;;;;2.53;0.60;;;15.50;99.90;;;;;;5073352;28;20040;-66
2023/03/24 12:16:05;;;;;;;8.40;1.13;;;15.90;99.90;;;;;;5073211;28;20040;-65
2023/03/24 12:18:50;;;;;;;1.58;0.43;;;16.00;99.90;;;;;;5073341;28;20450;-66
2023/03/24 12:21:26;;;;;;;4.38;1.02;;;16.10;60.70;;;;;;5073106;28;20067;-66
2023/03/24 12:23:58;;;;;;;2.25;0.63;;;16.30;99.90;;;;;;5072949;28;20037;-66
2023/03/24 12:26:27;;;;;;;1.33;0.68;;;16.30;97.90;;;;;;5072077;28;20124;-65
2023/03/24 12:29:32;;;;;;;4.30;1.65;;;16.00;11.80;;;;;;5072873;28;20055;-66
2023/03/24 12:32:07;;;;;;;2.92;0.50;;;15.70;1.00;;;;;;5073080;28;20068;-65
2023/03/24 12:35:19;;;;;;;3.60;1.05;;;16.00;1.00;;;;;;5073057;28;20484;-65
2023/03/24 12:38:19;;;;;;;5.68;0.77;;;16.30;1.00;;;;;;5054783;28;20178;-65
2023/03/24 12:41:33;;;;;;;3.80;0.68;;;16.50;99.90;;;;;;4991392;28;20458;-63
2023/03/24 12:44:10;;;;;;;2.08;0.57;;;16.40;99.90;;;;;;5049628;28;20102;-63
2023/03/24 12:47:00;;;;;;;6.47;0.80;;;16.30;99.90;;;;;;5072626;28;20043;-63
2023/03/24 12:49:53;;;;;;;4.22;0.90;;;16.50;99.90;;;;;;5073270;28;20044;-61
2023/03/24 12:52:26;;;;;;;3.05;1.15;;;16.30;99.90;;;;;;5054702;28;20049;-61
2023/03/24 12:55:03;;;;;;;3.47;0.70;;;16.20;99.90;;;;;;5072668;28;20041;-62
2023/03/24 12:57:35;;;;;;;4.93;0.80;;;16.20;99.90;;;;;;5072577;28;20036;-61
2023/03/24 13:00:10;;;;;;;2.78;0.40;;;16.20;37.40;;;;;;5072772;28;20374;-61
2023/03/24 13:02:41;;;;;;;1.42;0.40;;;16.30;1.00;;;;;;5072782;28;20051;-61
2023/03/24 13:05:16;;;;;;;4.32;1.40;;;16.10;1.00;;;;;;5072497;28;20103;-61
2023/03/24 13:07:46;;;;;;;1.52;0.50;;;15.90;1.00;;;;;;5072775;28;20099;-61
2023/03/24 13:10:19;;;;;;;3.97;0.40;;;16.40;1.00;;;;;;5072722;28;20044;-61